Página principal
METAR-TAF:

METAR-TAF

Aeroportos :

Al Hoceima, Marrocos

latitude: 35-11N, longitude: 003-51W, altura: 27 m

Observação actual do tempo

O boletim foi feito há 38 minutos, às 14:00 UTC
Vento 9 kt de nor-noroeste, variando entre oes-noroeste e norte
Temperatura 26°C
Humidade 74%
Pressão 1020 hPa
Visibilidade: 6000 m
Nuvens fragmentadasa uma altura de 600 ft

METAR: GMTA 071400Z 33009KT 290V360 6000 BKN006 26/21 Q1020 NOSIG

Hora: 15:38 (14:38 UTC)

Previsão

O boletim foi feito há 3 horas e 38 minutos, às 11:00 UTC
Previsão válida de 07 às 12 UTC a 08 às 18 UTC
Vento 8 kt de nor-noroeste
Visibilidade: 7000 m
Nuvens dispersasa uma altura de 900 ft

TAF: GMTA 071100Z 0712/0818 34008KT 7000 SCT009

Observações e previsões do tempo de mais de 4000 aeroportos (mensagens METAR e TAF).

As estações disponíveis são os pontos amarelos e vermelhos sobre o mapa.

Mova o rato sobre o mapa para ver o nome da estação.

Depois clique no ponto para visualizar as observações e previsões meteorológicas.

Para alterar o mapa : clique nos botões verdes com uma cruz preta para aumentar o zoom; no botão verde com uma pitada de zoom; ou nas setas verdes para mapas adjacentes.


METAR-TAF: